createdAt,value
2022-11-04T00:00:29.673Z,99957.41
2022-11-04T00:02:59.004Z,99963.91
2022-11-04T00:05:27.825Z,99949.56
2022-11-04T00:08:15.482Z,99955.25
2022-11-04T00:11:01.570Z,99948.06
2022-11-04T00:13:31.361Z,99953.31
2022-11-04T00:16:20.879Z,99941.06
2022-11-04T00:18:49.805Z,99939.38
2022-11-04T00:21:36.324Z,99937.97
2022-11-04T00:24:25.468Z,99934.88
2022-11-04T00:27:11.874Z,99930.94
2022-11-04T00:29:40.877Z,99927.72
2022-11-04T00:32:28.038Z,99927.97
2022-11-04T00:34:56.959Z,99929.66
2022-11-04T00:37:25.927Z,99923.47
2022-11-04T00:39:56.134Z,99927.72
2022-11-04T00:42:25.062Z,99931.50
2022-11-04T00:44:53.810Z,99920.38
2022-11-04T00:47:22.555Z,99915.44
2022-11-04T00:49:52.580Z,99921.50
2022-11-04T00:52:21.768Z,99911.78
2022-11-04T00:54:50.842Z,99916.88
2022-11-04T00:57:21.103Z,99923.63
2022-11-04T00:59:50.160Z,99919.25
2022-11-04T01:02:19.015Z,99910.38
2022-11-04T01:04:48.967Z,99914.91
2022-11-04T01:07:17.891Z,99903.59
2022-11-04T01:09:46.635Z,99899.47
2022-11-04T01:12:17.071Z,99905.50
2022-11-04T01:14:50.081Z,99900.72
2022-11-04T01:17:18.765Z,99899.59
2022-11-04T01:19:47.503Z,99905.75
2022-11-04T01:22:16.415Z,99892.84
2022-11-04T01:24:45.518Z,99884.78
2022-11-04T01:27:14.342Z,99868.72
2022-11-04T01:29:43.084Z,99875.03
2022-11-04T01:32:13.250Z,99872.03
2022-11-04T01:34:43.564Z,99857.97
2022-11-04T01:37:12.758Z,99863.31
2022-11-04T01:39:41.691Z,99850.47
2022-11-04T01:42:16.432Z,99861.75
2022-11-04T01:44:56.017Z,99860.47
2022-11-04T01:47:36.766Z,99854.56
2022-11-04T01:50:12.571Z,99849.50
2022-11-04T01:52:51.210Z,99854.84
2022-11-04T01:55:25.270Z,99847.50
2022-11-04T01:58:01.609Z,99851.88
2022-11-04T02:00:31.446Z,99841.47
2022-11-04T02:03:07.830Z,99841.84
2022-11-04T02:05:37.361Z,99832.00
2022-11-04T02:08:10.769Z,99834.25
2022-11-04T02:10:47.473Z,99835.38
2022-11-04T02:13:15.303Z,99825.22
2022-11-04T02:15:54.826Z,99819.88
2022-11-04T02:18:45.264Z,99814.94
2022-11-04T02:21:46.739Z,99811.13
2022-11-04T02:24:58.742Z,99808.56
2022-11-04T02:28:00.515Z,99813.47
2022-11-04T02:30:38.320Z,99806.69
2022-11-04T02:33:31.721Z,99812.03
2022-11-04T02:36:09.134Z,99811.06
2022-11-04T02:38:51.836Z,99811.66
2022-11-04T02:41:38.450Z,99815.88
2022-11-04T02:44:19.048Z,99812.66
2022-11-04T02:46:57.540Z,99806.59
2022-11-04T02:49:34.346Z,99815.03
2022-11-04T02:52:08.916Z,99802.66
2022-11-04T02:54:46.147Z,99805.00
2022-11-04T02:57:21.587Z,99803.03
2022-11-04T02:59:57.532Z,99803.75
2022-11-04T03:02:35.173Z,99794.31
2022-11-04T03:05:08.510Z,99800.09
2022-11-04T03:07:42.840Z,99792.63
2022-11-04T03:10:20.423Z,99798.28
2022-11-04T03:12:58.560Z,99798.66
2022-11-04T03:15:33.985Z,99803.34
2022-11-04T03:18:19.296Z,99793.34
2022-11-04T03:20:51.272Z,99801.50
2022-11-04T03:23:20.918Z,99799.25
2022-11-04T03:25:58.404Z,99804.00
2022-11-04T03:28:41.340Z,99805.72
2022-11-04T03:31:22.460Z,99808.66
2022-11-04T03:33:57.067Z,99807.69
2022-11-04T03:36:26.073Z,99806.97
2022-11-04T03:38:55.332Z,99802.88
2022-11-04T03:41:34.283Z,99804.28
2022-11-04T03:44:03.391Z,99802.34
2022-11-04T03:46:32.407Z,99811.06
2022-11-04T03:49:04.394Z,99811.91
2022-11-04T03:51:34.534Z,99801.63
2022-11-04T03:54:03.767Z,99806.00
2022-11-04T03:57:04.631Z,99802.19
2022-11-04T04:00:01.124Z,99803.94
2022-11-04T04:02:39.053Z,99809.00
2022-11-04T04:05:20.981Z,99815.88
2022-11-04T04:07:58.112Z,99816.03
2022-11-04T04:10:43.141Z,99814.63
2022-11-04T04:13:38.775Z,99819.25
2022-11-04T04:16:15.328Z,99817.03
2022-11-04T04:18:54.170Z,99827.47
2022-11-04T04:21:34.565Z,99835.34
2022-11-04T04:24:23.318Z,99836.91
2022-11-04T04:27:13.469Z,99833.25
2022-11-04T04:29:46.466Z,99840.44
2022-11-04T04:32:17.554Z,99845.25
2022-11-04T04:34:46.586Z,99848.09
2022-11-04T04:37:23.118Z,99842.31
2022-11-04T04:40:17.561Z,99848.41
2022-11-04T04:43:12.586Z,99853.03
2022-11-04T04:45:49.706Z,99845.59
2022-11-04T04:48:19.361Z,99843.59
2022-11-04T04:50:57.023Z,99854.06
2022-11-04T04:53:27.237Z,99847.03
2022-11-04T04:55:55.999Z,99846.72
2022-11-04T04:58:24.819Z,99851.53
2022-11-04T05:00:54.378Z,99847.03
2022-11-04T05:03:23.370Z,99840.81
2022-11-04T05:05:54.880Z,99850.13
2022-11-04T05:08:28.208Z,99839.53
2022-11-04T05:10:57.000Z,99847.88
2022-11-04T05:13:30.399Z,99844.47
2022-11-04T05:16:05.082Z,99845.03
2022-11-04T05:18:33.931Z,99852.09
2022-11-04T05:21:06.399Z,99852.50
2022-11-04T05:23:36.837Z,99852.66
2022-11-04T05:26:06.122Z,99864.06
2022-11-04T05:28:35.211Z,99868.72
2022-11-04T05:31:06.674Z,99867.03
2022-11-04T05:33:35.760Z,99872.38
2022-11-04T05:36:08.965Z,99876.22
2022-11-04T05:38:41.347Z,99875.50
2022-11-04T05:41:12.300Z,99885.53
2022-11-04T05:43:41.210Z,99896.09
2022-11-04T05:46:10.045Z,99896.69
2022-11-04T05:48:40.929Z,99900.94
2022-11-04T05:51:15.221Z,99905.31
2022-11-04T05:53:45.885Z,99911.78
2022-11-04T05:56:14.849Z,99917.59
2022-11-04T05:58:44.195Z,99904.88
2022-11-04T06:01:28.252Z,99920.94
2022-11-04T06:04:00.106Z,99923.47
2022-11-04T06:06:34.080Z,99921.03
2022-11-04T06:09:05.803Z,99920.63
2022-11-04T06:11:36.178Z,99928.25
2022-11-04T06:14:05.766Z,99939.41
2022-11-04T06:16:34.756Z,99932.78
2022-11-04T06:19:07.690Z,99926.53
2022-11-04T06:21:40.034Z,99940.03
2022-11-04T06:24:10.303Z,99953.31
2022-11-04T06:26:39.763Z,99959.53
2022-11-04T06:29:11.641Z,99955.00
2022-11-04T06:31:40.588Z,99968.81
2022-11-04T06:34:09.448Z,99964.31
2022-11-04T06:36:38.191Z,99975.59
2022-11-04T06:39:07.368Z,99964.03
2022-11-04T06:41:38.265Z,99993.38
2022-11-04T06:44:07.175Z,99990.16
2022-11-04T06:46:39.803Z,99994.53
2022-11-04T06:49:13.044Z,100001.72
2022-11-04T06:51:42.574Z,99992.09
2022-11-04T06:54:12.843Z,100007.34
2022-11-04T06:56:43.809Z,100010.84
2022-11-04T06:59:19.210Z,100017.91
2022-11-04T07:01:52.242Z,100023.47
2022-11-04T07:04:23.251Z,100031.63
2022-11-04T07:06:53.007Z,100026.41
2022-11-04T07:09:22.807Z,100017.81
2022-11-04T07:11:54.097Z,100019.81
2022-11-04T07:14:23.778Z,100028.69
2022-11-04T07:16:54.089Z,100036.88
2022-11-04T07:19:25.467Z,100038.81
2022-11-04T07:21:56.134Z,100042.22
2022-11-04T07:24:26.141Z,100038.69
2022-11-04T07:26:58.227Z,100046.31
2022-11-04T07:29:27.831Z,100068.72
2022-11-04T07:31:59.218Z,100064.66
2022-11-04T07:34:30.255Z,100070.75
2022-11-04T07:37:00.207Z,100071.72
2022-11-04T07:39:29.094Z,100073.00
2022-11-04T07:41:59.864Z,100075.88
2022-11-04T07:44:29.016Z,100090.25
2022-11-04T07:46:58.492Z,100095.09
2022-11-04T07:49:27.888Z,100089.47
2022-11-04T07:51:56.780Z,100096.78
2022-11-04T07:54:25.597Z,100097.94
2022-11-04T07:56:54.475Z,100102.03
2022-11-04T07:59:24.718Z,100107.81
2022-11-04T08:01:54.036Z,100106.44
2022-11-04T08:04:24.349Z,100105.31
2022-11-04T08:06:53.628Z,100110.16
2022-11-04T08:09:23.781Z,100111.00
2022-11-04T08:11:52.833Z,100104.53
2022-11-04T08:14:22.059Z,100104.78
2022-11-04T08:16:54.033Z,100087.00
2022-11-04T08:19:23.017Z,100097.16
2022-11-04T08:21:52.196Z,100100.03
2022-11-04T08:24:21.328Z,100092.41
2022-11-04T08:26:50.196Z,100086.47
2022-11-04T08:29:19.158Z,100093.69
2022-11-04T08:31:48.453Z,100099.19
2022-11-04T08:34:18.851Z,100092.31
2022-11-04T08:36:48.813Z,100098.09
2022-11-04T08:39:17.785Z,100107.75
2022-11-04T08:41:48.244Z,100103.78
2022-11-04T08:44:18.184Z,100088.94
2022-11-04T08:46:48.681Z,100103.19
2022-11-04T08:49:21.392Z,100081.72
2022-11-04T08:51:56.681Z,100076.06
2022-11-04T08:54:27.011Z,100069.13
2022-11-04T08:56:57.261Z,100079.31
2022-11-04T08:59:26.305Z,100085.34
2022-11-04T09:01:57.614Z,100092.69
2022-11-04T09:04:28.368Z,100095.84
2022-11-04T09:06:57.629Z,100093.69
2022-11-04T09:09:26.549Z,100096.06
2022-11-04T09:11:55.493Z,100090.09
2022-11-04T09:14:24.914Z,100091.59
2022-11-04T09:16:54.235Z,100094.16
2022-11-04T09:19:24.104Z,100102.97
2022-11-04T09:21:55.063Z,100109.53
2022-11-04T09:24:24.377Z,100110.44
2022-11-04T09:26:53.316Z,100093.78
2022-11-04T09:29:22.168Z,100086.63
2022-11-04T09:31:51.385Z,100099.44
2022-11-04T09:34:20.475Z,100104.41
2022-11-04T09:36:49.350Z,100098.31
2022-11-04T09:39:19.847Z,100093.97
2022-11-04T09:42:06.901Z,100085.50
2022-11-04T09:45:15.385Z,100087.28
2022-11-04T09:47:42.239Z,100080.78
2022-11-04T09:50:20.506Z,100067.47
2022-11-04T09:52:55.578Z,100071.41
2022-11-04T09:55:34.124Z,100082.66
2022-11-04T09:58:04.823Z,100071.44
2022-11-04T10:00:41.017Z,100072.84
2022-11-04T10:03:39.845Z,100087.50
2022-11-04T10:06:33.432Z,100082.78
2022-11-04T10:09:18.671Z,100090.47
2022-11-04T10:12:06.861Z,100082.78
2022-11-04T10:15:02.361Z,100088.63
2022-11-04T10:17:51.910Z,100096.47
2022-11-04T10:20:47.188Z,100083.47
2022-11-04T10:23:25.052Z,100074.56
2022-11-04T10:26:06.437Z,100076.94
2022-11-04T10:28:43.572Z,100082.72
2022-11-04T10:31:17.302Z,100078.00
2022-11-04T10:33:53.122Z,100077.16
2022-11-04T10:36:23.689Z,100083.63
2022-11-04T10:38:55.858Z,100075.94
2022-11-04T10:41:34.900Z,100076.63
2022-11-04T10:44:10.411Z,100076.03
2022-11-04T10:46:55.845Z,100086.69
2022-11-04T10:52:52.485Z,100090.91
2022-11-04T10:55:42.829Z,100096.00
2022-11-04T10:58:19.931Z,100093.44
2022-11-04T11:00:50.704Z,100079.72
2022-11-04T11:03:34.416Z,100080.91
2022-11-04T11:06:23.956Z,100075.38
2022-11-04T11:08:55.515Z,100092.91
2022-11-04T11:11:47.494Z,100092.84
2022-11-04T11:14:32.748Z,100087.00
2022-11-04T11:17:23.128Z,100091.53
2022-11-04T11:19:56.392Z,100096.06
2022-11-04T11:22:38.602Z,100096.66
2022-11-04T11:25:32.220Z,100108.34
2022-11-04T11:28:04.558Z,100115.56
2022-11-04T11:30:37.199Z,100136.09
2022-11-04T11:33:19.216Z,100139.16
2022-11-04T11:35:54.402Z,100160.09
2022-11-04T11:38:27.748Z,100147.91
2022-11-04T11:41:25.887Z,100146.25
2022-11-04T11:43:58.596Z,100138.41
2022-11-04T11:46:31.833Z,100136.25
2022-11-04T11:49:06.218Z,100147.72
2022-11-04T11:51:38.250Z,100151.34
2022-11-04T11:54:22.959Z,100159.38
2022-11-04T12:02:52.007Z,100162.81
2022-11-04T12:11:51.060Z,100168.84
2022-11-04T12:14:36.660Z,100158.25
2022-11-04T12:17:24.650Z,100166.38
2022-11-04T12:20:14.299Z,100168.78
2022-11-04T12:22:59.596Z,100171.50
2022-11-04T12:25:35.966Z,100175.69
2022-11-04T12:28:16.998Z,100172.63
2022-11-04T12:31:08.920Z,100165.81
2022-11-04T12:33:48.863Z,100178.06
2022-11-04T12:36:46.041Z,100174.78
2022-11-04T12:39:47.586Z,100172.19
2022-11-04T12:42:32.761Z,100187.56
2022-11-04T12:45:21.403Z,100181.59
2022-11-04T12:47:51.317Z,100192.53
2022-11-04T12:50:49.722Z,100190.69
2022-11-04T12:53:56.516Z,100191.41
2022-11-04T12:56:39.019Z,100193.19
2022-11-04T12:59:37.731Z,100194.53
2022-11-04T13:02:17.097Z,100203.13
2022-11-04T13:04:57.821Z,100203.13
2022-11-04T13:07:35.002Z,100198.31
2022-11-04T13:10:17.585Z,100189.25
2022-11-04T13:12:52.049Z,100198.31
2022-11-04T13:15:25.902Z,100207.06
2022-11-04T13:18:02.453Z,100211.47
2022-11-04T13:20:37.668Z,100202.28
2022-11-04T13:23:16.258Z,100207.38
2022-11-04T13:25:49.113Z,100209.66
2022-11-04T13:28:24.204Z,100210.91
2022-11-04T13:31:04.870Z,100209.66
2022-11-04T13:33:48.404Z,100207.81
2022-11-04T13:36:41.684Z,100212.94
2022-11-04T13:39:20.211Z,100223.97
2022-11-04T13:42:33.596Z,100223.25
2022-11-04T13:45:14.398Z,100232.34
2022-11-04T13:47:51.891Z,100234.06
2022-11-04T13:50:36.860Z,100246.25
2022-11-04T13:53:09.460Z,100248.53
2022-11-04T13:55:51.088Z,100255.03
2022-11-04T13:58:26.580Z,100249.78
2022-11-04T14:01:28.452Z,100252.06
2022-11-04T14:04:07.738Z,100251.81
2022-11-04T14:06:53.979Z,100264.66
2022-11-04T14:09:36.881Z,100259.56
2022-11-04T14:12:30.943Z,100266.81
2022-11-04T14:15:16.736Z,100265.81
2022-11-04T14:18:05.924Z,100261.28
2022-11-04T14:20:38.524Z,100271.94
2022-11-04T14:23:23.920Z,100279.28
2022-11-04T14:26:04.234Z,100289.31
2022-11-04T14:28:35.421Z,100295.13
2022-11-04T14:31:06.411Z,100294.53
2022-11-04T14:33:51.580Z,100299.47
2022-11-04T14:36:43.013Z,100305.41
2022-11-04T14:39:26.885Z,100299.50
2022-11-04T14:42:03.007Z,100302.72
2022-11-04T14:44:39.103Z,100305.84
2022-11-04T14:47:21.687Z,100303.97
2022-11-04T14:50:01.262Z,100307.34
2022-11-04T14:52:34.952Z,100306.72
2022-11-04T14:55:14.566Z,100303.06
2022-11-04T14:57:46.797Z,100314.06
2022-11-04T15:00:35.640Z,100312.63
2022-11-04T15:03:52.104Z,100322.22
2022-11-04T15:06:11.303Z,100323.00
2022-11-04T15:08:46.031Z,100322.16
2022-11-04T15:11:38.942Z,100329.88
2022-11-04T15:14:23.591Z,100335.47
2022-11-04T15:16:57.935Z,100339.78
2022-11-04T15:19:32.892Z,100337.72
2022-11-04T15:22:05.924Z,100345.53
2022-11-04T15:24:36.913Z,100353.59
2022-11-04T15:27:08.332Z,100363.69
2022-11-04T15:29:37.141Z,100365.97
2022-11-04T15:32:07.352Z,100366.69
2022-11-04T15:34:38.074Z,100370.34
2022-11-04T15:37:09.888Z,100378.69
2022-11-04T15:39:44.180Z,100380.34
2022-11-04T15:42:40.635Z,100381.47
2022-11-04T15:45:37.288Z,100396.97
2022-11-04T15:48:30.964Z,100396.66
2022-11-04T15:51:22.311Z,100395.47
2022-11-04T15:53:56.932Z,100397.28
2022-11-04T15:56:31.005Z,100401.41
2022-11-04T15:59:02.969Z,100412.59
2022-11-04T16:01:33.093Z,100417.00
2022-11-04T16:04:07.291Z,100414.53
2022-11-04T16:06:40.122Z,100417.19
2022-11-04T16:09:28.595Z,100418.41
2022-11-04T16:12:16.671Z,100407.38
2022-11-04T16:14:53.721Z,100415.78
2022-11-04T16:17:24.548Z,100416.47
2022-11-04T16:19:56.862Z,100413.03
2022-11-04T16:22:29.615Z,100422.66
2022-11-04T16:25:02.190Z,100419.25
2022-11-04T16:27:35.607Z,100425.19
2022-11-04T16:30:18.192Z,100432.16
2022-11-04T16:32:49.547Z,100428.50
2022-11-04T16:35:22.019Z,100425.53
2022-11-04T16:37:54.435Z,100437.25
2022-11-04T16:40:26.317Z,100440.91
2022-11-04T16:42:56.093Z,100444.59
2022-11-04T16:45:30.341Z,100449.81
2022-11-04T16:47:59.407Z,100446.03
2022-11-04T16:50:32.073Z,100445.44
2022-11-04T16:53:03.405Z,100449.94
2022-11-04T16:55:34.253Z,100448.25
2022-11-04T16:58:06.003Z,100444.31
2022-11-04T17:00:35.491Z,100453.69
2022-11-04T17:03:22.006Z,100450.09
2022-11-04T17:05:52.264Z,100451.91
2022-11-04T17:08:21.624Z,100461.78
2022-11-04T17:10:52.262Z,100454.31
2022-11-04T17:13:21.126Z,100465.03
2022-11-04T17:15:50.189Z,100461.78
2022-11-04T17:18:20.478Z,100453.13
2022-11-04T17:20:56.115Z,100451.66
2022-11-04T17:23:25.510Z,100458.78
2022-11-04T17:25:56.845Z,100464.59
2022-11-04T17:28:27.012Z,100464.84
2022-11-04T17:30:55.884Z,100461.19
2022-11-04T17:33:25.339Z,100468.72
2022-11-04T17:35:54.679Z,100467.41
2022-11-04T17:38:23.839Z,100474.88
2022-11-04T17:41:11.745Z,100472.09
2022-11-04T17:43:57.772Z,100474.38
2022-11-04T17:46:35.805Z,100488.09
2022-11-04T17:49:09.044Z,100494.34
2022-11-04T17:51:40.288Z,100497.78
2022-11-04T17:54:09.748Z,100504.16
2022-11-04T17:56:40.992Z,100501.97
2022-11-04T17:59:12.510Z,100503.91
2022-11-04T18:01:43.228Z,100511.94
2022-11-04T18:04:16.874Z,100509.13
2022-11-04T18:06:46.283Z,100517.50
2022-11-04T18:09:15.940Z,100518.22
2022-11-04T18:12:05.066Z,100523.81
2022-11-04T18:14:34.056Z,100531.53
2022-11-04T18:17:02.955Z,100527.38
2022-11-04T18:19:32.519Z,100528.63
2022-11-04T18:22:01.644Z,100527.38
2022-11-04T18:24:30.627Z,100540.38
2022-11-04T18:27:01.629Z,100539.44
2022-11-04T18:29:30.382Z,100533.84
2022-11-04T18:31:59.166Z,100536.00
2022-11-04T18:34:28.674Z,100533.44
2022-11-04T18:37:00.387Z,100539.22
2022-11-04T18:39:29.444Z,100543.34
2022-11-04T18:41:59.825Z,100540.03
2022-11-04T18:44:28.958Z,100535.66
2022-11-04T18:46:57.957Z,100542.31
2022-11-04T18:49:27.004Z,100537.22
2022-11-04T18:51:55.908Z,100539.28
2022-11-04T18:54:24.872Z,100550.25
2022-11-04T18:56:53.731Z,100554.16
2022-11-04T18:59:23.983Z,100561.72
2022-11-04T19:01:53.472Z,100559.50
2022-11-04T19:04:22.650Z,100569.47
2022-11-04T19:06:51.530Z,100562.91
2022-11-04T19:12:29.845Z,100570.19
2022-11-04T19:15:00.146Z,100569.56
2022-11-04T19:17:29.018Z,100572.03
2022-11-04T19:19:58.338Z,100570.31
2022-11-04T19:22:27.611Z,100573.00
2022-11-04T19:24:56.426Z,100564.38
2022-11-04T19:27:25.737Z,100572.31
2022-11-04T19:29:55.215Z,100573.16
2022-11-04T19:32:25.609Z,100579.59
2022-11-04T19:34:54.732Z,100575.19
2022-11-04T19:37:23.698Z,100587.22
2022-11-04T19:39:54.232Z,100580.69
2022-11-04T19:42:40.772Z,100581.56
2022-11-04T19:45:10.970Z,100588.63
2022-11-04T19:47:41.255Z,100583.78
2022-11-04T19:50:10.829Z,100584.56
2022-11-04T19:52:39.829Z,100594.72
2022-11-04T19:55:10.601Z,100600.72
2022-11-04T19:57:40.678Z,100601.66
2022-11-04T20:00:12.140Z,100607.66
2022-11-04T20:02:43.437Z,100604.28
2022-11-04T20:05:12.313Z,100608.78
2022-11-04T20:07:42.768Z,100615.94
2022-11-04T20:10:12.467Z,100616.44
2022-11-04T20:12:58.594Z,100624.25
2022-11-04T20:15:28.685Z,100616.00
2022-11-04T20:18:01.983Z,100622.59
2022-11-04T20:20:31.708Z,100627.66
2022-11-04T20:23:00.884Z,100628.97
2022-11-04T20:25:29.789Z,100628.59
2022-11-04T20:27:58.910Z,100633.59
2022-11-04T20:30:27.898Z,100628.28
2022-11-04T20:32:58.207Z,100638.75
2022-11-04T20:35:27.128Z,100641.66
2022-11-04T20:37:56.381Z,100637.25
2022-11-04T20:40:25.448Z,100636.28
2022-11-04T20:42:54.263Z,100642.13
2022-11-04T20:45:24.129Z,100649.44
2022-11-04T20:47:53.976Z,100649.44
2022-11-04T20:50:24.327Z,100652.63
2022-11-04T20:52:53.192Z,100663.94
2022-11-04T20:55:23.158Z,100661.63
2022-11-04T20:57:51.952Z,100667.84
2022-11-04T21:00:21.492Z,100664.75
2022-11-04T21:02:50.726Z,100669.00
2022-11-04T21:05:20.114Z,100673.19
2022-11-04T21:07:50.335Z,100668.69
2022-11-04T21:10:19.243Z,100675.28
2022-11-04T21:12:48.146Z,100676.88
2022-11-04T21:15:30.920Z,100686.72
2022-11-04T21:17:59.855Z,100692.44
2022-11-04T21:20:29.051Z,100682.06
2022-11-04T21:22:59.498Z,100682.78
2022-11-04T21:25:28.315Z,100696.78
2022-11-04T21:27:57.554Z,100697.34
2022-11-04T21:30:31.905Z,100692.53
2022-11-04T21:33:01.871Z,100696.59
2022-11-04T21:35:31.077Z,100708.91
2022-11-04T21:38:01.925Z,100708.28
2022-11-04T21:40:31.206Z,100704.53
2022-11-04T21:43:00.608Z,100706.16
2022-11-04T21:45:29.932Z,100706.38
2022-11-04T21:47:58.832Z,100714.59
2022-11-04T21:50:27.794Z,100712.56
2022-11-04T21:52:56.611Z,100710.97
2022-11-04T21:55:27.004Z,100712.91
2022-11-04T21:57:55.734Z,100718.00
2022-11-04T22:00:24.575Z,100719.22
2022-11-04T22:02:53.636Z,100715.00
2022-11-04T22:05:22.717Z,100719.13
2022-11-04T22:08:08.759Z,100714.28
2022-11-04T22:10:39.199Z,100717.41
2022-11-04T22:13:08.574Z,100714.63
2022-11-04T22:15:55.218Z,100712.47
2022-11-04T22:18:23.986Z,100709.09
2022-11-04T22:20:53.470Z,100714.09
2022-11-04T22:23:22.832Z,100714.91
2022-11-04T22:25:53.115Z,100717.28
2022-11-04T22:28:22.000Z,100728.63
2022-11-04T22:30:50.996Z,100723.81
2022-11-04T22:33:20.066Z,100734.09
2022-11-04T22:35:49.236Z,100737.53
2022-11-04T22:38:18.222Z,100734.75
2022-11-04T22:40:54.453Z,100739.53
2022-11-04T22:43:25.199Z,100736.78
2022-11-04T22:45:55.112Z,100735.06
2022-11-04T22:48:24.923Z,100724.50
2022-11-04T22:50:58.120Z,100727.28
2022-11-04T22:53:27.501Z,100736.44
2022-11-04T22:55:56.598Z,100746.53
2022-11-04T22:58:27.126Z,100734.88
2022-11-04T23:00:57.866Z,100744.59
2022-11-04T23:03:27.513Z,100737.31
2022-11-04T23:05:57.470Z,100739.69
2022-11-04T23:08:28.063Z,100735.84
2022-11-04T23:11:17.089Z,100734.88
2022-11-04T23:14:13.189Z,100738.84
2022-11-04T23:17:07.189Z,100744.28
2022-11-04T23:19:36.229Z,100744.28
2022-11-04T23:22:23.065Z,100743.88
2022-11-04T23:25:11.395Z,100754.13
2022-11-04T23:28:03.162Z,100761.00
2022-11-04T23:30:37.299Z,100768.88
2022-11-04T23:33:09.288Z,100769.84
2022-11-04T23:35:59.539Z,100772.75
2022-11-04T23:38:29.876Z,100780.00
2022-11-04T23:41:20.420Z,100777.44
2022-11-04T23:43:49.046Z,100778.81
2022-11-04T23:46:42.609Z,100780.53
2022-11-04T23:49:30.762Z,100787.13
2022-11-04T23:52:16.931Z,100785.31
2022-11-04T23:55:03.177Z,100784.88
2022-11-04T23:57:49.452Z,100789.81
